Time;durP1;ratioP1;P1;durP2;ratioP2;P2;SDS_P1;SDS_P2;PMS_P1;PMS_P2;Temp;Humidity;BMP_temperature;BMP_pressure;BME280_temperature;BME280_humidity;BME280_pressure;Samples;Min_cycle;Max_cycle;Signal;HPM_P1;HPM_P2
2022/08/10 00:00:45;;;;;;;2.92;1.83;;;23.90;66.00;;;;;;4997516;28;20045;-83
2022/08/10 00:03:10;;;;;;;4.40;1.55;;;23.90;66.20;;;;;;4996207;28;20432;-83
2022/08/10 00:05:36;;;;;;;7.28;2.00;;;23.80;66.20;;;;;;4995885;28;20053;-83
2022/08/10 00:08:02;;;;;;;2.30;1.60;;;23.80;66.40;;;;;;4979674;28;20035;-81
2022/08/10 00:10:28;;;;;;;3.47;1.50;;;23.80;66.60;;;;;;4995731;28;20509;-81
2022/08/10 00:12:54;;;;;;;2.75;1.70;;;23.70;66.60;;;;;;4979911;28;20031;-81
2022/08/10 00:15:22;;;;;;;3.40;1.60;;;23.70;66.80;;;;;;4997068;28;20030;-81
2022/08/10 00:17:48;;;;;;;3.08;1.45;;;23.70;67.10;;;;;;4996053;28;20054;-81
2022/08/10 00:20:14;;;;;;;2.67;1.55;;;23.60;66.90;;;;;;4979533;28;20105;-81
2022/08/10 00:22:39;;;;;;;3.53;1.52;;;23.60;67.20;;;;;;4996709;28;20061;-81
2022/08/10 00:25:07;;;;;;;3.75;1.40;;;23.60;67.30;;;;;;4995923;28;20073;-80
2022/08/10 00:27:32;;;;;;;2.65;1.30;;;23.50;67.30;;;;;;4995549;28;20122;-81
2022/08/10 00:29:58;;;;;;;2.45;1.20;;;23.50;67.30;;;;;;4995572;28;20531;-81
2022/08/10 00:32:24;;;;;;;2.58;1.23;;;23.50;67.30;;;;;;4996697;28;20476;-81
2022/08/10 00:34:50;;;;;;;2.25;1.30;;;23.40;67.30;;;;;;4995468;28;20026;-81
2022/08/10 00:37:17;;;;;;;2.28;1.30;;;23.40;67.50;;;;;;4995257;28;20054;-81
2022/08/10 00:39:43;;;;;;;2.13;1.30;;;23.30;67.60;;;;;;4979204;28;20030;-81
2022/08/10 00:42:11;;;;;;;2.03;1.10;;;23.30;67.90;;;;;;4995445;28;20376;-81
2022/08/10 00:44:38;;;;;;;4.20;1.20;;;23.30;68.00;;;;;;4995316;28;20065;-81
2022/08/10 00:47:05;;;;;;;1.48;1.20;;;23.20;68.30;;;;;;4995476;28;20038;-81
2022/08/10 00:49:31;;;;;;;1.85;1.40;;;23.20;68.40;;;;;;4995261;28;20030;-81
2022/08/10 00:51:57;;;;;;;2.38;1.27;;;23.20;68.50;;;;;;4984104;28;20117;-81
2022/08/10 00:54:23;;;;;;;1.38;1.20;;;23.20;68.60;;;;;;4995157;28;20371;-81
2022/08/10 00:56:48;;;;;;;2.20;1.30;;;23.10;68.70;;;;;;4994926;28;20030;-81
2022/08/10 00:59:14;;;;;;;1.38;1.10;;;23.10;68.80;;;;;;4995261;28;20106;-81
2022/08/10 01:01:40;;;;;;;1.73;1.42;;;23.10;68.80;;;;;;4994553;28;20022;-81
2022/08/10 01:04:06;;;;;;;2.00;1.52;;;23.00;69.00;;;;;;4996216;28;20034;-81
2022/08/10 01:07:12;;;;;;;1.60;1.20;;;23.00;69.00;;;;;;4994756;28;20030;-81
2022/08/10 01:10:04;;;;;;;3.03;1.30;;;23.00;69.20;;;;;;4996202;28;20026;-81
2022/08/10 01:13:04;;;;;;;2.35;1.15;;;22.90;69.80;;;;;;4985119;28;20023;-81
2022/08/10 01:15:58;;;;;;;2.35;1.30;;;22.90;70.00;;;;;;5011003;28;20527;-81
2022/08/10 01:18:43;;;;;;;4.38;1.33;;;22.90;70.00;;;;;;4995988;28;20018;-81
2022/08/10 01:21:40;;;;;;;3.13;1.27;;;22.80;70.00;;;;;;4994127;28;20026;-81
2022/08/10 01:24:33;;;;;;;1.73;1.23;;;22.80;70.30;;;;;;4997279;28;20018;-81
2022/08/10 01:27:18;;;;;;;3.97;1.27;;;22.80;70.40;;;;;;5010752;28;20053;-81
2022/08/10 01:30:00;;;;;;;1.30;1.02;;;22.70;70.70;;;;;;4995810;28;20029;-81
2022/08/10 01:32:47;;;;;;;1.58;1.10;;;22.70;70.90;;;;;;4994460;28;20459;-81
2022/08/10 01:35:44;;;;;;;2.08;1.50;;;22.70;70.90;;;;;;4995808;28;20434;-83
2022/08/10 01:38:15;;;;;;;2.63;1.40;;;22.60;71.10;;;;;;4991039;28;20570;-81
2022/08/10 01:40:52;;;;;;;3.08;1.30;;;22.60;71.30;;;;;;4995472;28;20031;-81
2022/08/10 01:43:20;;;;;;;2.53;1.00;;;22.60;71.40;;;;;;4994345;28;20027;-81
2022/08/10 01:45:52;;;;;;;2.35;1.42;;;22.50;71.40;;;;;;4995363;28;20032;-81
2022/08/10 01:48:30;;;;;;;3.60;1.20;;;22.50;71.60;;;;;;4994285;28;20030;-85
2022/08/10 01:51:17;;;;;;;5.13;1.55;;;22.50;71.80;;;;;;5010407;28;20021;-85
2022/08/10 01:53:53;;;;;;;3.35;1.40;;;22.50;71.90;;;;;;5002042;28;20063;-85
2022/08/10 01:56:21;;;;;;;2.33;1.17;;;22.40;72.10;;;;;;4993824;28;20109;-85
2022/08/10 01:58:57;;;;;;;2.85;1.35;;;22.40;72.10;;;;;;4994258;28;20057;-85
2022/08/10 02:01:27;;;;;;;1.85;1.27;;;22.40;72.40;;;;;;4993859;28;20028;-85
2022/08/10 02:04:07;;;;;;;2.90;1.55;;;22.40;72.50;;;;;;4993868;28;20085;-84
2022/08/10 02:06:44;;;;;;;2.70;1.55;;;22.30;72.90;;;;;;5017680;28;20029;-83
2022/08/10 02:09:14;;;;;;;2.28;1.48;;;22.30;73.00;;;;;;4988182;28;20035;-83
2022/08/10 02:11:40;;;;;;;2.42;1.52;;;22.30;72.90;;;;;;4994392;28;20026;-84
2022/08/10 02:14:08;;;;;;;2.88;1.65;;;22.20;73.10;;;;;;4993369;28;20133;-83
2022/08/10 02:16:35;;;;;;;1.67;1.40;;;22.20;73.20;;;;;;4993294;28;20387;-84
2022/08/10 02:19:03;;;;;;;2.53;1.40;;;22.20;73.40;;;;;;4993614;28;20090;-84
2022/08/10 02:21:29;;;;;;;2.05;1.52;;;22.20;73.80;;;;;;4993528;28;20144;-82
2022/08/10 02:23:58;;;;;;;2.65;1.50;;;22.10;73.70;;;;;;4994832;28;20559;-81
2022/08/10 02:26:25;;;;;;;3.30;1.45;;;22.10;73.90;;;;;;5002538;28;20119;-81
2022/08/10 02:28:52;;;;;;;3.17;1.50;;;22.10;73.90;;;;;;4977211;28;20023;-81
2022/08/10 02:31:22;;;;;;;2.15;1.50;;;22.10;74.00;;;;;;4994770;28;20456;-81
2022/08/10 02:33:50;;;;;;;3.05;1.50;;;22.00;74.20;;;;;;5007185;28;20475;-85
2022/08/10 02:36:17;;;;;;;1.98;1.52;;;22.00;74.30;;;;;;4993711;28;20051;-81
2022/08/10 02:38:50;;;;;;;3.78;1.80;;;22.00;74.50;;;;;;4997685;28;20448;-81
2022/08/10 02:41:30;;;;;;;2.63;1.48;;;21.90;74.60;;;;;;4997956;28;20018;-81
2022/08/10 02:44:15;;;;;;;4.70;1.70;;;21.90;74.60;;;;;;4997670;28;20029;-81
2022/08/10 02:46:53;;;;;;;3.30;1.60;;;21.80;74.70;;;;;;4999393;28;20026;-85
2022/08/10 02:49:28;;;;;;;2.00;1.50;;;21.80;75.00;;;;;;4998346;28;20411;-85
2022/08/10 02:52:00;;;;;;;2.53;1.85;;;21.80;75.20;;;;;;4995006;28;20026;-86
2022/08/10 02:54:31;;;;;;;2.47;1.40;;;21.70;75.20;;;;;;4995337;28;20034;-85
2022/08/10 02:57:17;;;;;;;3.40;1.70;;;21.70;75.40;;;;;;4994075;28;20498;-85
2022/08/10 02:59:52;;;;;;;2.22;1.40;;;21.60;75.70;;;;;;4993652;28;20026;-86
2022/08/10 03:02:41;;;;;;;4.80;1.60;;;21.60;75.80;;;;;;4994700;28;20054;-85
2022/08/10 03:05:10;;;;;;;3.97;1.75;;;21.60;76.10;;;;;;4982632;28;20026;-85
2022/08/10 03:07:52;;;;;;;2.30;1.60;;;21.60;76.10;;;;;;4994661;28;20379;-85
2022/08/10 03:10:21;;;;;;;4.43;1.80;;;21.50;76.30;;;;;;4994640;28;20023;-85
2022/08/10 03:12:52;;;;;;;2.78;1.70;;;21.50;76.40;;;;;;4993182;28;20067;-85
2022/08/10 03:15:21;;;;;;;2.60;1.90;;;21.50;76.70;;;;;;4995363;28;20023;-85
2022/08/10 03:17:48;;;;;;;2.10;1.67;;;21.40;76.90;;;;;;4995167;28;20089;-81
2022/08/10 03:20:15;;;;;;;2.58;1.80;;;21.40;77.10;;;;;;4995054;28;20014;-81
2022/08/10 03:22:43;;;;;;;4.57;2.10;;;21.30;77.20;;;;;;4976685;28;20177;-83
2022/08/10 03:25:11;;;;;;;3.55;2.13;;;21.30;77.30;;;;;;4995971;28;20022;-83
2022/08/10 03:27:39;;;;;;;2.30;1.90;;;21.30;77.50;;;;;;4998067;28;20026;-83
2022/08/10 03:30:06;;;;;;;3.40;2.25;;;21.30;77.80;;;;;;5010162;28;20058;-83
2022/08/10 03:32:33;;;;;;;5.45;2.67;;;21.30;78.10;;;;;;4980504;28;20042;-84
2022/08/10 03:34:59;;;;;;;3.83;2.20;;;21.20;78.10;;;;;;4996639;28;20034;-84
2022/08/10 03:37:26;;;;;;;3.95;2.47;;;21.20;78.40;;;;;;4980011;28;20169;-83
2022/08/10 03:39:53;;;;;;;4.63;2.78;;;21.20;78.50;;;;;;4991255;28;20034;-81
2022/08/10 03:42:20;;;;;;;5.15;2.50;;;21.20;78.80;;;;;;4996849;28;20475;-81
2022/08/10 03:44:48;;;;;;;4.15;2.28;;;21.20;79.10;;;;;;4997173;28;20030;-81
2022/08/10 03:47:16;;;;;;;5.50;2.50;;;21.10;79.30;;;;;;4996821;28;20111;-81
2022/08/10 03:49:43;;;;;;;4.35;2.30;;;21.10;79.40;;;;;;4980763;28;20031;-81
2022/08/10 03:52:09;;;;;;;8.23;2.72;;;21.10;79.60;;;;;;4980235;28;20033;-81
2022/08/10 03:54:35;;;;;;;5.38;3.10;;;21.10;79.60;;;;;;4996546;28;20073;-81
2022/08/10 03:57:01;;;;;;;6.22;2.72;;;21.00;79.70;;;;;;4981743;28;20392;-81
2022/08/10 03:59:30;;;;;;;4.75;2.60;;;21.00;80.00;;;;;;4977887;28;20031;-81
2022/08/10 04:01:56;;;;;;;3.67;2.75;;;21.00;80.30;;;;;;4996440;28;20109;-81
2022/08/10 04:04:22;;;;;;;4.28;2.85;;;21.00;80.40;;;;;;4977013;28;20015;-81
2022/08/10 04:06:49;;;;;;;4.90;2.90;;;21.00;80.60;;;;;;4995006;28;20030;-81
2022/08/10 04:09:15;;;;;;;4.97;3.45;;;20.90;81.10;;;;;;4997840;28;20029;-81
2022/08/10 04:11:41;;;;;;;5.13;3.40;;;20.90;81.50;;;;;;4996494;28;20041;-80
2022/08/10 04:14:07;;;;;;;4.82;3.40;;;20.90;81.80;;;;;;4996073;28;20023;-86
2022/08/10 04:16:32;;;;;;;5.68;3.30;;;20.80;81.80;;;;;;4995816;28;20034;-81
2022/08/10 04:18:58;;;;;;;4.93;3.40;;;20.80;82.40;;;;;;4979838;28;20034;-81
2022/08/10 04:21:30;;;;;;;5.30;3.25;;;20.80;82.00;;;;;;4979612;28;20030;-81
2022/08/10 04:23:58;;;;;;;6.07;3.38;;;20.80;82.10;;;;;;4996826;28;20372;-81
2022/08/10 04:26:24;;;;;;;5.53;3.50;;;20.80;82.20;;;;;;4997059;28;20503;-81
2022/08/10 04:28:50;;;;;;;4.75;3.10;;;20.70;82.30;;;;;;4979337;28;20038;-81
2022/08/10 04:31:18;;;;;;;7.05;3.70;;;20.70;82.40;;;;;;4979507;28;20026;-81
2022/08/10 04:33:48;;;;;;;6.45;3.50;;;20.70;82.60;;;;;;4995268;28;20026;-81
2022/08/10 04:36:17;;;;;;;5.13;3.80;;;20.70;82.80;;;;;;4995350;28;20050;-81
2022/08/10 04:38:43;;;;;;;5.32;3.45;;;20.60;82.90;;;;;;4979681;28;20420;-81
2022/08/10 04:41:10;;;;;;;6.53;3.60;;;20.60;83.10;;;;;;4993178;28;20018;-81
2022/08/10 04:43:37;;;;;;;6.65;3.50;;;20.60;83.30;;;;;;4995369;28;20129;-81
2022/08/10 04:46:02;;;;;;;6.53;3.80;;;20.60;83.50;;;;;;4993158;28;20494;-80
2022/08/10 04:48:28;;;;;;;5.70;3.78;;;20.50;83.60;;;;;;4979053;28;20061;-81
2022/08/10 04:50:54;;;;;;;4.95;3.60;;;20.50;83.90;;;;;;4978937;28;20471;-80
2022/08/10 04:53:19;;;;;;;6.07;3.90;;;20.50;84.00;;;;;;4991557;28;20034;-81
2022/08/10 04:55:45;;;;;;;10.68;4.03;;;20.50;84.20;;;;;;4995033;28;20041;-81
2022/08/10 04:58:11;;;;;;;6.57;4.30;;;20.50;84.30;;;;;;4962735;28;20026;-81
2022/08/10 05:00:36;;;;;;;6.97;3.90;;;20.50;84.50;;;;;;4978830;28;20038;-81
2022/08/10 05:03:02;;;;;;;7.25;3.90;;;20.40;84.70;;;;;;4995101;28;20026;-81
2022/08/10 05:05:28;;;;;;;5.10;3.85;;;20.40;84.90;;;;;;4978703;28;20117;-81
2022/08/10 05:07:54;;;;;;;6.22;4.70;;;20.40;85.20;;;;;;4995927;28;20026;-81
2022/08/10 05:10:19;;;;;;;7.13;4.75;;;20.40;85.40;;;;;;4995078;28;20033;-81
2022/08/10 05:12:45;;;;;;;8.55;4.72;;;20.40;85.60;;;;;;4978391;28;20388;-80
2022/08/10 05:15:13;;;;;;;7.05;4.53;;;20.30;85.70;;;;;;4978808;28;20022;-81
2022/08/10 05:17:40;;;;;;;6.15;4.25;;;20.30;86.00;;;;;;4994686;28;20034;-81
2022/08/10 05:20:08;;;;;;;9.77;4.93;;;20.30;86.10;;;;;;4975450;28;20027;-81
2022/08/10 05:22:39;;;;;;;7.47;4.53;;;20.30;86.30;;;;;;4994727;28;20369;-81
2022/08/10 05:25:05;;;;;;;;;;;20.30;86.60;;;;;;4979771;28;20135;-81
2022/08/10 05:27:30;;;;;;;7.00;5.00;;;20.30;87.20;;;;;;4996029;28;19914;-81
2022/08/10 05:29:56;;;;;;;10.20;5.15;;;20.30;87.00;;;;;;4995131;28;20034;-81
2022/08/10 05:32:37;;;;;;;7.72;4.72;;;20.30;87.20;;;;;;4995068;28;20034;-81
2022/08/10 05:35:04;;;;;;;7.75;4.80;;;20.30;87.50;;;;;;5000011;28;20057;-81
2022/08/10 05:37:31;;;;;;;6.50;5.13;;;20.30;87.60;;;;;;5001169;28;20125;-81
2022/08/10 05:39:57;;;;;;;7.18;5.25;;;20.30;87.70;;;;;;4978093;28;20019;-81
2022/08/10 05:42:24;;;;;;;9.15;5.22;;;20.30;87.90;;;;;;4994544;28;20061;-85
2022/08/10 05:44:50;;;;;;;7.78;5.18;;;20.30;88.00;;;;;;4995505;28;20015;-85
2022/08/10 05:47:16;;;;;;;8.63;5.55;;;20.30;88.20;;;;;;4997136;28;20085;-85
2022/08/10 05:49:42;;;;;;;9.05;5.15;;;20.20;88.20;;;;;;4996369;28;20441;-85
2022/08/10 05:52:08;;;;;;;6.45;4.95;;;20.30;88.50;;;;;;4978317;28;20027;-83
2022/08/10 05:54:34;;;;;;;11.18;5.10;;;20.30;88.70;;;;;;4994159;28;20368;-83
2022/08/10 05:57:00;;;;;;;7.57;5.00;;;20.30;89.00;;;;;;5001067;28;20042;-81
2022/08/10 05:59:30;;;;;;;7.40;5.05;;;20.30;89.20;;;;;;4994164;28;20025;-80
2022/08/10 06:01:59;;;;;;;6.53;4.78;;;20.30;89.20;;;;;;4993967;28;20030;-81
2022/08/10 06:04:29;;;;;;;6.88;4.45;;;20.40;89.30;;;;;;4993795;28;20019;-81
2022/08/10 06:06:56;;;;;;;8.02;5.07;;;20.40;89.30;;;;;;4994009;28;20073;-81
2022/08/10 06:09:24;;;;;;;8.52;5.00;;;20.40;89.20;;;;;;4977891;28;20423;-81
2022/08/10 06:11:52;;;;;;;7.15;4.93;;;20.40;89.20;;;;;;4995063;28;20072;-81
2022/08/10 06:17:04;;;;;;;9.38;4.80;;;20.40;89.30;;;;;;4994067;28;20049;-81
2022/08/10 06:19:31;;;;;;;7.07;4.70;;;20.40;89.50;;;;;;4974471;28;20030;-81
2022/08/10 06:21:57;;;;;;;8.23;4.80;;;20.40;89.60;;;;;;4991793;28;20018;-81
2022/08/10 06:24:25;;;;;;;6.38;4.30;;;20.50;89.80;;;;;;4993043;28;20028;-81
2022/08/10 06:26:50;;;;;;;6.68;4.57;;;20.50;89.90;;;;;;4974908;28;20026;-81
2022/08/10 06:29:19;;;;;;;8.50;5.00;;;20.50;90.00;;;;;;4973828;28;20487;-81
2022/08/10 06:31:48;;;;;;;6.57;4.75;;;20.50;90.00;;;;;;4999107;28;20030;-81
2022/08/10 06:34:17;;;;;;;8.02;4.57;;;20.50;90.10;;;;;;4998035;28;20081;-85
2022/08/10 06:36:47;;;;;;;7.50;4.63;;;20.50;90.20;;;;;;4993267;28;20065;-85
2022/08/10 06:39:13;;;;;;;8.05;4.50;;;20.60;90.30;;;;;;4993622;28;20033;-85
2022/08/10 06:41:45;;;;;;;6.63;4.30;;;20.60;90.30;;;;;;4994778;28;20395;-86
2022/08/10 06:45:03;;;;;;;7.05;4.68;;;20.60;90.30;;;;;;4992661;28;20391;-85
2022/08/10 06:47:43;;;;;;;7.15;4.65;;;20.70;90.30;;;;;;4992697;28;20032;-85
2022/08/10 06:50:21;;;;;;;7.45;4.57;;;20.70;90.30;;;;;;4993274;28;20032;-85
2022/08/10 06:52:51;;;;;;;6.85;4.47;;;20.70;90.20;;;;;;4993167;28;20389;-86
2022/08/10 06:55:20;;;;;;;8.30;4.22;;;20.70;90.10;;;;;;4993008;28;20046;-86
2022/08/10 06:57:47;;;;;;;6.93;4.18;;;20.70;90.10;;;;;;5009659;28;20026;-79
2022/08/10 07:00:13;;;;;;;6.53;3.72;;;20.80;90.10;;;;;;4987127;28;20022;-79
2022/08/10 07:02:49;;;;;;;6.45;3.95;;;20.80;90.20;;;;;;4997749;28;20102;-79
2022/08/10 07:05:26;;;;;;;9.38;4.20;;;20.90;90.20;;;;;;4991063;28;20372;-78
2022/08/10 07:07:56;;;;;;;7.97;4.35;;;20.90;90.20;;;;;;4989736;28;20025;-80
2022/08/10 07:10:25;;;;;;;6.90;4.03;;;20.90;90.00;;;;;;5004585;28;20022;-80
2022/08/10 07:12:55;;;;;;;6.97;4.47;;;21.00;90.00;;;;;;5024721;28;20050;-81
2022/08/10 07:15:22;;;;;;;7.80;4.10;;;21.00;89.80;;;;;;4980302;28;20465;-81
2022/08/10 07:17:49;;;;;;;9.18;4.50;;;21.10;89.50;;;;;;4975609;28;20030;-81
2022/08/10 07:20:20;;;;;;;9.35;4.05;;;21.10;89.20;;;;;;5003517;28;20427;-82
2022/08/10 07:22:52;;;;;;;6.18;4.05;;;21.10;89.30;;;;;;4998424;28;20476;-82
2022/08/10 07:25:24;;;;;;;7.82;5.03;;;21.20;89.30;;;;;;4979310;28;20031;-81
2022/08/10 07:27:51;;;;;;;6.90;4.07;;;21.20;89.00;;;;;;4988625;28;20014;-81
2022/08/10 07:30:17;;;;;;;6.78;3.90;;;21.30;88.80;;;;;;4990412;28;20042;-82
2022/08/10 07:32:46;;;;;;;6.63;4.07;;;21.30;88.80;;;;;;4957771;28;20025;-80
2022/08/10 07:35:14;;;;;;;11.43;3.90;;;21.40;88.80;;;;;;5010429;28;20487;-82
2022/08/10 07:37:45;;;;;;;5.53;3.47;;;21.50;88.60;;;;;;4977560;28;20046;-84
2022/08/10 07:40:12;;;;;;;6.57;4.30;;;21.50;88.30;;;;;;5014706;28;20073;-84
2022/08/10 07:42:39;;;;;;;5.80;3.58;;;21.60;88.40;;;;;;5024229;28;20045;-84
2022/08/10 07:45:05;;;;;;;8.80;3.97;;;21.70;88.20;;;;;;4994601;28;20076;-84
2022/08/10 07:47:36;;;;;;;6.57;4.38;;;21.70;87.90;;;;;;4994258;28;20558;-85
2022/08/10 07:50:06;;;;;;;7.53;3.63;;;21.80;87.40;;;;;;5024968;28;20094;-83
2022/08/10 07:52:34;;;;;;;5.40;3.78;;;21.90;87.70;;;;;;4995093;28;20034;-84
2022/08/10 07:55:02;;;;;;;5.97;3.78;;;21.90;87.00;;;;;;4994086;28;20102;-84
2022/08/10 07:57:32;;;;;;;6.35;3.90;;;22.00;86.60;;;;;;4976741;28;20027;-84
2022/08/10 08:00:02;;;;;;;8.48;3.00;;;22.10;86.20;;;;;;5000925;28;20033;-85
2022/08/10 08:02:34;;;;;;;6.38;3.55;;;22.20;86.00;;;;;;4994149;28;20495;-86
2022/08/10 08:05:07;;;;;;;6.60;3.75;;;22.30;86.30;;;;;;4994460;28;20022;-86
2022/08/10 08:07:35;;;;;;;6.75;3.90;;;22.30;86.20;;;;;;4994086;28;20026;-85
2022/08/10 08:10:03;;;;;;;5.70;3.55;;;22.40;86.10;;;;;;4995642;28;20037;-85
2022/08/10 08:12:31;;;;;;;6.15;3.50;;;22.50;85.70;;;;;;4996329;28;20388;-85
2022/08/10 08:14:58;;;;;;;7.55;3.55;;;22.60;85.60;;;;;;4996316;28;20480;-85
2022/08/10 08:17:25;;;;;;;6.22;3.88;;;22.60;85.40;;;;;;4995980;28;20089;-88
2022/08/10 08:19:53;;;;;;;7.00;3.90;;;22.70;85.20;;;;;;4996366;28;20025;-87
2022/08/10 08:22:20;;;;;;;6.38;3.65;;;22.80;85.10;;;;;;4996277;28;20027;-87
2022/08/10 08:24:46;;;;;;;8.68;3.58;;;22.90;84.80;;;;;;5000331;28;20038;-86
2022/08/10 08:27:15;;;;;;;7.45;3.22;;;23.00;84.90;;;;;;4997905;28;20510;-80
2022/08/10 08:29:43;;;;;;;6.22;3.20;;;23.00;84.80;;;;;;5013635;28;20061;-81
2022/08/10 08:32:10;;;;;;;4.07;2.58;;;23.10;85.10;;;;;;4995288;28;20376;-82
2022/08/10 08:34:38;;;;;;;5.82;2.80;;;23.20;85.20;;;;;;4991995;28;20677;-81
2022/08/10 08:37:05;;;;;;;8.48;2.83;;;23.30;85.10;;;;;;4983961;28;20046;-81
2022/08/10 08:39:32;;;;;;;5.07;2.50;;;23.40;84.70;;;;;;4992283;28;20546;-81
2022/08/10 08:42:26;;;;;;;4.93;2.72;;;23.50;84.70;;;;;;4996135;28;20019;-82
2022/08/10 08:45:04;;;;;;;4.35;2.80;;;23.60;84.50;;;;;;4992338;28;20029;-81
2022/08/10 08:47:42;;;;;;;6.65;2.78;;;23.70;83.80;;;;;;5022599;28;20034;-81
2022/08/10 08:50:22;;;;;;;5.47;2.83;;;23.80;83.60;;;;;;5015507;28;20170;-81
2022/08/10 08:53:19;;;;;;;4.75;2.47;;;23.90;83.10;;;;;;4992519;28;20030;-81
2022/08/10 08:56:05;;;;;;;4.95;2.28;;;23.90;82.40;;;;;;4977641;28;20070;-81
2022/08/10 08:59:13;;;;;;;5.65;2.67;;;24.00;82.60;;;;;;4991566;28;20048;-81
2022/08/10 09:02:13;;;;;;;4.40;2.38;;;24.10;82.20;;;;;;4980152;28;20496;-81
2022/08/10 09:05:09;;;;;;;6.22;2.88;;;24.20;81.70;;;;;;5003390;28;20026;-85
2022/08/10 09:08:12;;;;;;;5.35;2.50;;;24.30;81.60;;;;;;4993475;28;20033;-85
2022/08/10 09:11:03;;;;;;;3.92;2.47;;;24.40;81.50;;;;;;5010976;28;20109;-84
2022/08/10 09:13:51;;;;;;;4.15;2.08;;;24.50;81.20;;;;;;4994755;28;20476;-85
2022/08/10 09:16:41;;;;;;;4.00;2.10;;;24.60;81.10;;;;;;5000441;28;20036;-84
2022/08/10 09:19:49;;;;;;;5.10;2.10;;;24.70;81.00;;;;;;4995728;28;20019;-85
2022/08/10 09:22:53;;;;;;;5.25;1.90;;;24.80;81.00;;;;;;4995245;28;20022;-84
2022/08/10 09:25:24;;;;;;;4.15;2.00;;;24.90;80.60;;;;;;4994608;28;20160;-84
2022/08/10 09:28:02;;;;;;;3.95;2.30;;;24.90;80.10;;;;;;4995645;28;20021;-84
2022/08/10 09:30:33;;;;;;;5.03;1.95;;;25.10;80.10;;;;;;5001043;28;20018;-84
2022/08/10 09:33:09;;;;;;;5.07;2.13;;;25.10;79.60;;;;;;4995626;28;20156;-84
2022/08/10 09:36:04;;;;;;;6.22;2.28;;;25.20;79.00;;;;;;4995298;28;20037;-84
2022/08/10 09:38:41;;;;;;;4.95;2.20;;;25.30;78.50;;;;;;4995651;28;20458;-85
2022/08/10 09:41:21;;;;;;;4.65;2.42;;;25.40;78.20;;;;;;4994126;28;20042;-84
2022/08/10 09:43:51;;;;;;;4.38;2.10;;;25.50;77.90;;;;;;4994353;28;20476;-84
2022/08/10 09:46:53;;;;;;;3.67;2.00;;;25.50;77.00;;;;;;4994079;28;20026;-85
2022/08/10 09:49:21;;;;;;;3.78;2.10;;;25.60;76.70;;;;;;4995342;28;20025;-84
2022/08/10 09:51:50;;;;;;;2.83;1.95;;;25.60;76.20;;;;;;4995184;28;20092;-85
2022/08/10 09:54:53;;;;;;;4.78;2.15;;;25.70;76.20;;;;;;4994983;28;20076;-85
2022/08/10 09:57:27;;;;;;;3.33;1.77;;;25.80;75.50;;;;;;4993853;28;20088;-85
2022/08/10 10:00:07;;;;;;;3.13;1.90;;;25.90;75.20;;;;;;4994021;28;20349;-85
2022/08/10 10:02:55;;;;;;;3.95;1.88;;;26.00;75.00;;;;;;4993301;28;20027;-84
2022/08/10 10:05:35;;;;;;;2.92;1.60;;;26.10;74.60;;;;;;4989312;28;20023;-84
2022/08/10 10:08:22;;;;;;;3.40;1.60;;;26.10;74.40;;;;;;4993748;28;20125;-84
2022/08/10 10:11:29;;;;;;;3.15;1.73;;;26.20;74.30;;;;;;5020249;28;20424;-85
2022/08/10 10:14:11;;;;;;;4.07;1.10;;;26.30;73.70;;;;;;4987895;28;20045;-81
2022/08/10 10:16:59;;;;;;;3.42;1.60;;;26.30;72.90;;;;;;4994730;28;20030;-82
2022/08/10 10:19:47;;;;;;;4.70;1.58;;;26.40;73.10;;;;;;4992897;28;20025;-81
2022/08/10 10:22:38;;;;;;;3.33;1.38;;;26.50;72.10;;;;;;4978613;28;20391;-82
2022/08/10 10:25:26;;;;;;;2.30;1.10;;;26.60;71.90;;;;;;4991166;28;20546;-81
2022/08/10 10:28:25;;;;;;;2.55;1.77;;;26.70;71.80;;;;;;5019595;28;20053;-82
2022/08/10 10:31:06;;;;;;;1.73;1.38;;;26.70;71.30;;;;;;4978957;28;20475;-81
2022/08/10 10:33:59;;;;;;;2.38;1.30;;;26.80;70.60;;;;;;4982055;28;20030;-81
2022/08/10 10:36:27;;;;;;;4.30;1.50;;;26.90;70.00;;;;;;4986472;28;20053;-82
2022/08/10 10:38:58;;;;;;;3.13;1.48;;;27.00;69.50;;;;;;4990524;28;20125;-81
2022/08/10 10:41:30;;;;;;;2.95;1.33;;;27.00;69.30;;;;;;4993105;28;20066;-82
2022/08/10 10:44:02;;;;;;;2.03;1.10;;;27.10;69.20;;;;;;4986140;28;20121;-81
2022/08/10 10:46:50;;;;;;;2.83;1.30;;;27.20;68.80;;;;;;5019221;28;20022;-86
2022/08/10 10:49:28;;;;;;;1.85;1.20;;;27.20;68.30;;;;;;4986867;28;20072;-86
2022/08/10 10:52:03;;;;;;;3.45;1.10;;;27.30;67.90;;;;;;5033172;23;20410;-83
2022/08/10 10:55:02;;;;;;;1.70;1.20;;;27.40;66.90;;;;;;4992143;28;20834;-83
2022/08/10 10:57:58;;;;;;;3.95;1.40;;;27.50;66.30;;;;;;4993314;28;20058;-83
2022/08/10 11:00:31;;;;;;;3.17;1.17;;;27.50;65.80;;;;;;4985473;28;20035;-83
2022/08/10 11:03:08;;;;;;;2.88;1.27;;;27.60;64.60;;;;;;4992165;28;20058;-83
2022/08/10 11:06:08;;;;;;;2.08;1.50;;;27.60;64.20;;;;;;4992170;28;20113;-82
2022/08/10 11:08:39;;;;;;;2.95;1.20;;;27.70;63.80;;;;;;4992244;28;20382;-82
2022/08/10 11:11:31;;;;;;;3.35;1.20;;;27.80;63.60;;;;;;4991683;28;20030;-85
2022/08/10 11:14:23;;;;;;;3.28;1.20;;;27.90;63.50;;;;;;4991962;28;20026;-83
2022/08/10 11:17:01;;;;;;;1.63;1.10;;;28.00;63.50;;;;;;4992011;28;20069;-83
2022/08/10 11:19:53;;;;;;;5.43;1.10;;;28.00;63.60;;;;;;4991905;28;20026;-83
2022/08/10 11:22:29;;;;;;;2.25;1.13;;;28.10;63.70;;;;;;4991663;28;20386;-82
2022/08/10 11:25:10;;;;;;;2.75;1.35;;;28.20;63.10;;;;;;4980740;28;20113;-83
2022/08/10 11:27:55;;;;;;;2.60;1.45;;;28.20;63.00;;;;;;4991978;28;20032;-83
2022/08/10 11:30:38;;;;;;;3.58;1.30;;;28.30;63.10;;;;;;4991752;28;20446;-85
2022/08/10 11:33:22;;;;;;;2.90;1.15;;;28.40;63.10;;;;;;4993586;28;20030;-86
2022/08/10 11:36:04;;;;;;;1.77;1.27;;;28.50;63.20;;;;;;4992157;28;20076;-85
2022/08/10 11:38:40;;;;;;;2.83;1.35;;;28.50;62.60;;;;;;4992426;28;20554;-86
2022/08/10 11:41:37;;;;;;;6.03;1.40;;;28.60;61.80;;;;;;4992962;28;20470;-79
2022/08/10 11:44:12;;;;;;;2.85;1.20;;;28.70;61.70;;;;;;4992134;28;20027;-80
2022/08/10 11:46:46;;;;;;;1.67;1.25;;;28.80;61.80;;;;;;4996263;28;20045;-85
2022/08/10 11:49:25;;;;;;;2.30;1.35;;;28.80;61.90;;;;;;4994273;28;20026;-82
2022/08/10 11:51:59;;;;;;;4.70;1.70;;;28.90;60.80;;;;;;5004995;28;20081;-81
2022/08/10 11:54:41;;;;;;;2.05;1.60;;;29.00;60.00;;;;;;5008316;28;20018;-82
2022/08/10 11:57:09;;;;;;;2.70;1.48;;;29.10;59.10;;;;;;5011411;28;20145;-86
2022/08/10 12:02:30;;;;;;;1.90;1.30;;;29.20;57.20;;;;;;4996831;28;20096;-87
2022/08/10 12:05:06;;;;;;;2.10;1.20;;;29.20;56.40;;;;;;4995663;28;20038;-87
2022/08/10 12:07:33;;;;;;;1.73;1.15;;;29.30;56.50;;;;;;4995328;28;20386;-86
2022/08/10 12:09:59;;;;;;;2.03;1.23;;;29.40;56.70;;;;;;4996475;28;20034;-86
2022/08/10 12:12:29;;;;;;;1.98;1.40;;;29.40;55.40;;;;;;4979685;28;20026;-87
2022/08/10 12:15:07;;;;;;;2.43;1.40;;;29.50;55.20;;;;;;4997997;28;20027;-87
2022/08/10 12:17:43;;;;;;;2.38;1.30;;;29.60;54.30;;;;;;4996099;28;20305;-87
2022/08/10 12:20:16;;;;;;;1.48;1.30;;;29.60;54.20;;;;;;4995021;28;20025;-86
2022/08/10 12:22:57;;;;;;;5.38;1.60;;;29.70;53.80;;;;;;4994990;28;20026;-87
2022/08/10 12:25:41;;;;;;;3.28;1.23;;;29.80;54.00;;;;;;4995106;28;20497;-87
2022/08/10 12:28:30;;;;;;;4.95;1.50;;;29.90;54.10;;;;;;4996098;28;20030;-86
2022/08/10 12:31:01;;;;;;;2.60;1.27;;;30.00;53.00;;;;;;4994654;28;20025;-87
2022/08/10 12:33:49;;;;;;;2.53;1.15;;;30.10;52.40;;;;;;4994990;28;20026;-88
2022/08/10 12:36:22;;;;;;;4.13;1.30;;;30.10;52.30;;;;;;4992017;28;20482;-86
2022/08/10 12:39:06;;;;;;;1.90;1.20;;;30.20;52.90;;;;;;4994383;28;20076;-84
2022/08/10 12:42:06;;;;;;;4.40;1.58;;;30.30;51.50;;;;;;4994413;28;20434;-85
2022/08/10 12:44:39;;;;;;;1.20;1.10;;;30.40;50.80;;;;;;5002185;28;20383;-85
2022/08/10 12:47:44;;;;;;;1.95;1.23;;;30.40;50.20;;;;;;4994713;28;20788;-88
2022/08/10 12:50:22;;;;;;;1.60;1.20;;;30.50;50.40;;;;;;4987877;28;20053;-88
2022/08/10 12:53:02;;;;;;;1.80;1.10;;;30.50;49.50;;;;;;4994097;28;20125;-88
2022/08/10 12:55:31;;;;;;;1.95;1.20;;;30.60;49.80;;;;;;4994531;28;20025;-87
2022/08/10 12:57:58;;;;;;;1.67;1.23;;;30.70;49.80;;;;;;4993687;28;20494;-88
2022/08/10 13:00:52;;;;;;;2.60;1.40;;;30.80;49.70;;;;;;4995628;28;20096;-87
2022/08/10 13:03:22;;;;;;;1.48;1.20;;;30.80;49.40;;;;;;4995675;28;20046;-87
2022/08/10 13:05:49;;;;;;;2.50;1.08;;;30.90;49.10;;;;;;4995906;28;20453;-88
2022/08/10 13:11:04;;;;;;;2.53;1.33;;;31.00;48.80;;;;;;4996025;28;20046;-87
2022/08/10 13:13:33;;;;;;;3.80;1.17;;;31.10;49.10;;;;;;4995935;28;20030;-88
2022/08/10 13:16:00;;;;;;;1.85;1.33;;;31.20;48.60;;;;;;4994758;28;20060;-88
2022/08/10 13:18:32;;;;;;;2.33;1.25;;;31.20;48.50;;;;;;4994405;28;20066;-88
2022/08/10 13:21:06;;;;;;;1.40;1.10;;;31.30;48.70;;;;;;4994428;28;20488;-88
2022/08/10 13:23:40;;;;;;;1.30;1.20;;;31.40;48.30;;;;;;4994462;28;20029;-87
2022/08/10 13:26:10;;;;;;;2.22;1.23;;;31.40;48.00;;;;;;4993767;28;20030;-88
2022/08/10 13:28:49;;;;;;;1.30;1.20;;;31.50;47.60;;;;;;4995359;28;20053;-86
2022/08/10 13:31:22;;;;;;;2.25;1.38;;;31.50;47.30;;;;;;4994157;28;20027;-85